sensor_id;sensor_type;location;lat;lon;timestamp;pressure;altitude;pressure_sealevel;temperature;humidity
77086;BME280;66014;53.134;18.006;2023-10-09T00:02:14;101827.29;;;6.30;56.54
77086;BME280;66014;53.134;18.006;2023-10-09T00:04:41;101822.77;;;6.31;56.54
77086;BME280;66014;53.134;18.006;2023-10-09T00:07:08;101818.30;;;6.30;56.70
77086;BME280;66014;53.134;18.006;2023-10-09T00:09:36;101815.23;;;6.29;56.71
77086;BME280;66014;53.134;18.006;2023-10-09T00:12:32;101800.95;;;6.29;56.79
77086;BME280;66014;53.134;18.006;2023-10-09T00:15:01;101793.09;;;6.30;56.83
77086;BME280;66014;53.134;18.006;2023-10-09T00:18:03;101791.98;;;6.28;56.87
77086;BME280;66014;53.134;18.006;2023-10-09T00:24:35;101798.42;;;6.31;57.08
77086;BME280;66014;53.134;18.006;2023-10-09T00:30:14;101769.52;;;6.42;57.06
77086;BME280;66014;53.134;18.006;2023-10-09T00:33:10;101767.96;;;6.44;57.22
77086;BME280;66014;53.134;18.006;2023-10-09T00:35:38;101755.77;;;6.47;57.31
77086;BME280;66014;53.134;18.006;2023-10-09T00:38:10;101753.91;;;6.47;57.36
77086;BME280;66014;53.134;18.006;2023-10-09T00:41:02;101770.85;;;6.47;57.42
77086;BME280;66014;53.134;18.006;2023-10-09T00:43:38;101781.37;;;6.48;57.40
77086;BME280;66014;53.134;18.006;2023-10-09T00:46:11;101779.04;;;6.49;57.49
77086;BME280;66014;53.134;18.006;2023-10-09T00:48:55;101776.16;;;6.47;57.50
77086;BME280;66014;53.134;18.006;2023-10-09T00:51:22;101783.51;;;6.44;57.47
77086;BME280;66014;53.134;18.006;2023-10-09T00:57:20;101770.36;;;6.30;57.58
77086;BME280;66014;53.134;18.006;2023-10-09T01:00:13;101761.90;;;6.19;57.66
77086;BME280;66014;53.134;18.006;2023-10-09T01:02:52;101762.19;;;6.11;57.59
77086;BME280;66014;53.134;18.006;2023-10-09T01:05:37;101760.91;;;6.03;57.84
77086;BME280;66014;53.134;18.006;2023-10-09T01:08:04;101761.99;;;5.96;57.86
77086;BME280;66014;53.134;18.006;2023-10-09T01:10:48;101758.73;;;5.86;57.99
77086;BME280;66014;53.134;18.006;2023-10-09T01:13:18;101753.63;;;5.80;58.07
77086;BME280;66014;53.134;18.006;2023-10-09T01:15:47;101748.23;;;5.76;58.06
77086;BME280;66014;53.134;18.006;2023-10-09T01:18:14;101746.41;;;5.75;58.24
77086;BME280;66014;53.134;18.006;2023-10-09T01:20:43;101746.77;;;5.72;58.35
77086;BME280;66014;53.134;18.006;2023-10-09T01:23:12;101740.72;;;5.66;58.55
77086;BME280;66014;53.134;18.006;2023-10-09T01:25:39;101737.10;;;5.63;58.71
77086;BME280;66014;53.134;18.006;2023-10-09T01:28:10;101737.66;;;5.59;58.86
77086;BME280;66014;53.134;18.006;2023-10-09T01:30:36;101744.41;;;5.55;58.83
77086;BME280;66014;53.134;18.006;2023-10-09T01:33:08;101753.63;;;5.55;59.03
77086;BME280;66014;53.134;18.006;2023-10-09T01:35:48;101754.88;;;5.54;58.84
77086;BME280;66014;53.134;18.006;2023-10-09T01:38:16;101756.07;;;5.60;59.04
77086;BME280;66014;53.134;18.006;2023-10-09T01:40:42;101757.15;;;5.66;59.41
77086;BME280;66014;53.134;18.006;2023-10-09T01:43:10;101753.44;;;5.71;59.19
77086;BME280;66014;53.134;18.006;2023-10-09T01:45:36;101751.89;;;5.72;59.30
77086;BME280;66014;53.134;18.006;2023-10-09T01:48:12;101756.70;;;5.76;59.52
77086;BME280;66014;53.134;18.006;2023-10-09T01:50:40;101754.01;;;5.79;59.50
77086;BME280;66014;53.134;18.006;2023-10-09T01:53:10;101750.46;;;5.79;59.56
77086;BME280;66014;53.134;18.006;2023-10-09T01:55:42;101748.06;;;5.74;59.71
77086;BME280;66014;53.134;18.006;2023-10-09T01:58:11;101749.06;;;5.66;59.77
77086;BME280;66014;53.134;18.006;2023-10-09T02:00:46;101745.17;;;5.62;59.82
77086;BME280;66014;53.134;18.006;2023-10-09T02:03:21;101745.42;;;5.58;59.74
77086;BME280;66014;53.134;18.006;2023-10-09T02:05:52;101744.27;;;5.57;59.85
77086;BME280;66014;53.134;18.006;2023-10-09T02:08:40;101739.72;;;5.57;59.88
77086;BME280;66014;53.134;18.006;2023-10-09T02:11:17;101737.08;;;5.55;59.86
77086;BME280;66014;53.134;18.006;2023-10-09T02:13:51;101733.80;;;5.54;59.95
77086;BME280;66014;53.134;18.006;2023-10-09T02:16:29;101738.64;;;5.53;59.94
77086;BME280;66014;53.134;18.006;2023-10-09T02:18:55;101741.27;;;5.53;59.96
77086;BME280;66014;53.134;18.006;2023-10-09T02:21:33;101728.36;;;5.54;59.98
77086;BME280;66014;53.134;18.006;2023-10-09T02:24:03;101726.70;;;5.53;60.18
77086;BME280;66014;53.134;18.006;2023-10-09T02:26:35;101723.98;;;5.51;60.28
77086;BME280;66014;53.134;18.006;2023-10-09T02:29:04;101714.69;;;5.51;60.12
77086;BME280;66014;53.134;18.006;2023-10-09T02:31:39;101711.90;;;5.53;60.16
77086;BME280;66014;53.134;18.006;2023-10-09T02:34:20;101704.34;;;5.54;60.39
77086;BME280;66014;53.134;18.006;2023-10-09T02:36:53;101697.80;;;5.57;60.17
77086;BME280;66014;53.134;18.006;2023-10-09T02:39:31;101692.95;;;5.61;60.28
77086;BME280;66014;53.134;18.006;2023-10-09T02:42:09;101682.55;;;5.63;60.18
77086;BME280;66014;53.134;18.006;2023-10-09T02:44:38;101675.05;;;5.64;60.13
77086;BME280;66014;53.134;18.006;2023-10-09T02:47:14;101671.77;;;5.66;60.24
77086;BME280;66014;53.134;18.006;2023-10-09T02:50:05;101662.70;;;5.71;60.27
77086;BME280;66014;53.134;18.006;2023-10-09T02:52:46;101659.21;;;5.73;60.30
77086;BME280;66014;53.134;18.006;2023-10-09T02:55:13;101657.04;;;5.74;60.34
77086;BME280;66014;53.134;18.006;2023-10-09T02:57:53;101650.99;;;5.70;60.43
77086;BME280;66014;53.134;18.006;2023-10-09T03:00:31;101656.72;;;5.65;60.67
77086;BME280;66014;53.134;18.006;2023-10-09T03:02:58;101657.77;;;5.58;60.61
77086;BME280;66014;53.134;18.006;2023-10-09T03:05:25;101648.10;;;5.53;60.69
77086;BME280;66014;53.134;18.006;2023-10-09T03:07:54;101646.54;;;5.51;60.66
77086;BME280;66014;53.134;18.006;2023-10-09T03:10:27;101650.34;;;5.52;60.82
77086;BME280;66014;53.134;18.006;2023-10-09T03:12:52;101653.19;;;5.54;60.79
77086;BME280;66014;53.134;18.006;2023-10-09T03:15:24;101650.09;;;5.57;60.92
77086;BME280;66014;53.134;18.006;2023-10-09T03:17:50;101641.54;;;5.58;60.77
77086;BME280;66014;53.134;18.006;2023-10-09T03:20:19;101640.00;;;5.62;60.71
77086;BME280;66014;53.134;18.006;2023-10-09T03:22:48;101631.98;;;5.66;60.79
77086;BME280;66014;53.134;18.006;2023-10-09T03:25:15;101616.88;;;5.67;60.72
77086;BME280;66014;53.134;18.006;2023-10-09T03:27:43;101610.66;;;5.66;60.89
77086;BME280;66014;53.134;18.006;2023-10-09T03:30:17;101615.84;;;5.65;60.76
77086;BME280;66014;53.134;18.006;2023-10-09T03:32:50;101613.96;;;5.64;60.95
77086;BME280;66014;53.134;18.006;2023-10-09T03:35:20;101608.55;;;5.64;60.82
77086;BME280;66014;53.134;18.006;2023-10-09T03:38:00;101599.70;;;5.68;60.79
77086;BME280;66014;53.134;18.006;2023-10-09T03:40:35;101591.38;;;5.69;60.74
77086;BME280;66014;53.134;18.006;2023-10-09T03:43:04;101596.41;;;5.70;60.87
77086;BME280;66014;53.134;18.006;2023-10-09T03:45:30;101590.39;;;5.70;60.91
77086;BME280;66014;53.134;18.006;2023-10-09T03:48:00;101582.54;;;5.69;60.84
77086;BME280;66014;53.134;18.006;2023-10-09T03:50:48;101573.12;;;5.73;60.85
77086;BME280;66014;53.134;18.006;2023-10-09T03:53:14;101568.94;;;5.74;60.94
77086;BME280;66014;53.134;18.006;2023-10-09T03:55:40;101565.34;;;5.73;60.75
77086;BME280;66014;53.134;18.006;2023-10-09T03:58:12;101569.90;;;5.75;60.66
77086;BME280;66014;53.134;18.006;2023-10-09T04:00:39;101571.73;;;5.77;60.71
77086;BME280;66014;53.134;18.006;2023-10-09T04:03:16;101572.17;;;5.78;60.62
77086;BME280;66014;53.134;18.006;2023-10-09T04:05:43;101566.08;;;5.77;60.66
77086;BME280;66014;53.134;18.006;2023-10-09T04:08:10;101563.58;;;5.77;60.58
77086;BME280;66014;53.134;18.006;2023-10-09T04:10:45;101555.27;;;5.78;60.56
77086;BME280;66014;53.134;18.006;2023-10-09T04:13:34;101547.23;;;5.77;60.77
77086;BME280;66014;53.134;18.006;2023-10-09T04:16:02;101556.45;;;5.74;60.73
77086;BME280;66014;53.134;18.006;2023-10-09T04:18:36;101550.67;;;5.73;60.92
77086;BME280;66014;53.134;18.006;2023-10-09T04:21:07;101547.38;;;5.73;61.04
77086;BME280;66014;53.134;18.006;2023-10-09T04:23:47;101545.43;;;5.75;60.96
77086;BME280;66014;53.134;18.006;2023-10-09T04:26:25;101542.40;;;5.76;61.00
77086;BME280;66014;53.134;18.006;2023-10-09T04:28:51;101543.98;;;5.76;60.87
77086;BME280;66014;53.134;18.006;2023-10-09T04:31:19;101544.77;;;5.79;60.91
77086;BME280;66014;53.134;18.006;2023-10-09T04:34:05;101534.23;;;5.85;60.87
77086;BME280;66014;53.134;18.006;2023-10-09T04:36:51;101539.07;;;5.95;60.75
77086;BME280;66014;53.134;18.006;2023-10-09T04:39:25;101533.83;;;6.03;60.52
77086;BME280;66014;53.134;18.006;2023-10-09T04:41:57;101529.73;;;6.08;60.52
77086;BME280;66014;53.134;18.006;2023-10-09T04:44:46;101525.89;;;6.09;60.43
77086;BME280;66014;53.134;18.006;2023-10-09T04:47:34;101519.66;;;6.06;60.32
77086;BME280;66014;53.134;18.006;2023-10-09T04:50:13;101520.20;;;6.01;60.43
77086;BME280;66014;53.134;18.006;2023-10-09T04:53:03;101519.27;;;6.02;60.52
77086;BME280;66014;53.134;18.006;2023-10-09T04:55:41;101518.05;;;6.04;60.54
77086;BME280;66014;53.134;18.006;2023-10-09T05:01:44;101516.19;;;6.13;60.25
77086;BME280;66014;53.134;18.006;2023-10-09T05:04:26;101514.33;;;6.19;60.37
77086;BME280;66014;53.134;18.006;2023-10-09T05:07:05;101509.48;;;6.22;60.30
77086;BME280;66014;53.134;18.006;2023-10-09T05:09:49;101504.17;;;6.24;60.27
77086;BME280;66014;53.134;18.006;2023-10-09T05:12:22;101502.86;;;6.25;60.14
77086;BME280;66014;53.134;18.006;2023-10-09T05:14:54;101502.24;;;6.24;60.23
77086;BME280;66014;53.134;18.006;2023-10-09T05:17:41;101500.15;;;6.24;60.18
77086;BME280;66014;53.134;18.006;2023-10-09T05:20:17;101498.21;;;6.26;60.32
77086;BME280;66014;53.134;18.006;2023-10-09T05:22:53;101496.36;;;6.31;60.19
77086;BME280;66014;53.134;18.006;2023-10-09T05:25:30;101501.49;;;6.33;60.06
77086;BME280;66014;53.134;18.006;2023-10-09T05:28:16;101498.68;;;6.33;59.95
77086;BME280;66014;53.134;18.006;2023-10-09T05:30:57;101490.56;;;6.33;60.14
77086;BME280;66014;53.134;18.006;2023-10-09T05:34:00;101487.52;;;6.35;59.94
77086;BME280;66014;53.134;18.006;2023-10-09T05:36:27;101488.98;;;6.39;59.77
77086;BME280;66014;53.134;18.006;2023-10-09T05:38:53;101493.11;;;6.42;59.67
77086;BME280;66014;53.134;18.006;2023-10-09T05:41:44;101492.60;;;6.44;59.58
77086;BME280;66014;53.134;18.006;2023-10-09T05:44:18;101491.89;;;6.46;59.40
77086;BME280;66014;53.134;18.006;2023-10-09T05:47:03;101497.08;;;6.49;59.53
77086;BME280;66014;53.134;18.006;2023-10-09T05:49:48;101493.20;;;6.55;59.95
77086;BME280;66014;53.134;18.006;2023-10-09T05:52:55;101491.12;;;6.65;60.43
77086;BME280;66014;53.134;18.006;2023-10-09T05:55:23;101485.32;;;6.73;60.61
77086;BME280;66014;53.134;18.006;2023-10-09T05:58:08;101479.95;;;6.80;60.46
77086;BME280;66014;53.134;18.006;2023-10-09T06:01:12;101472.48;;;6.86;60.44
77086;BME280;66014;53.134;18.006;2023-10-09T06:03:57;101469.68;;;6.92;60.63
77086;BME280;66014;53.134;18.006;2023-10-09T06:06:42;101459.63;;;6.98;60.64
77086;BME280;66014;53.134;18.006;2023-10-09T06:09:12;101459.61;;;7.04;60.57
77086;BME280;66014;53.134;18.006;2023-10-09T06:11:40;101468.71;;;7.08;60.59
77086;BME280;66014;53.134;18.006;2023-10-09T06:14:16;101473.27;;;7.13;60.48
77086;BME280;66014;53.134;18.006;2023-10-09T06:16:54;101473.23;;;7.17;60.49
77086;BME280;66014;53.134;18.006;2023-10-09T06:19:24;101483.13;;;7.21;60.47
77086;BME280;66014;53.134;18.006;2023-10-09T06:22:10;101487.76;;;7.24;60.24
77086;BME280;66014;53.134;18.006;2023-10-09T06:24:55;101486.58;;;7.23;60.07
77086;BME280;66014;53.134;18.006;2023-10-09T06:27:35;101487.06;;;7.22;60.24
77086;BME280;66014;53.134;18.006;2023-10-09T06:30:01;101484.89;;;7.19;60.08
77086;BME280;66014;53.134;18.006;2023-10-09T06:33:05;101486.36;;;7.12;60.10
77086;BME280;66014;53.134;18.006;2023-10-09T06:35:46;101480.92;;;7.10;60.10
77086;BME280;66014;53.134;18.006;2023-10-09T06:38:22;101479.24;;;7.11;60.02
77086;BME280;66014;53.134;18.006;2023-10-09T06:40:54;101474.83;;;7.13;60.05
77086;BME280;66014;53.134;18.006;2023-10-09T06:44:11;101473.69;;;7.14;60.27
77086;BME280;66014;53.134;18.006;2023-10-09T06:46:57;101466.23;;;7.14;59.88
77086;BME280;66014;53.134;18.006;2023-10-09T06:49:33;101472.49;;;7.14;59.87
77086;BME280;66014;53.134;18.006;2023-10-09T06:52:02;101470.14;;;7.10;60.01
77086;BME280;66014;53.134;18.006;2023-10-09T06:54:44;101474.29;;;7.07;60.26
77086;BME280;66014;53.134;18.006;2023-10-09T06:57:17;101482.10;;;7.05;60.31
77086;BME280;66014;53.134;18.006;2023-10-09T07:00:18;101496.86;;;7.01;60.45
77086;BME280;66014;53.134;18.006;2023-10-09T07:03:03;101501.52;;;7.01;60.57
77086;BME280;66014;53.134;18.006;2023-10-09T07:05:38;101500.58;;;7.05;60.56
77086;BME280;66014;53.134;18.006;2023-10-09T07:08:50;101493.10;;;7.10;60.37
77086;BME280;66014;53.134;18.006;2023-10-09T07:11:41;101488.80;;;7.15;60.40
77086;BME280;66014;53.134;18.006;2023-10-09T07:14:28;101486.19;;;7.20;60.36
77086;BME280;66014;53.134;18.006;2023-10-09T07:17:01;101483.77;;;7.31;60.38
77086;BME280;66014;53.134;18.006;2023-10-09T07:19:43;101483.97;;;7.43;60.39
77086;BME280;66014;53.134;18.006;2023-10-09T07:22:12;101481.89;;;7.54;60.30
77086;BME280;66014;53.134;18.006;2023-10-09T07:25:15;101476.38;;;7.70;60.19
77086;BME280;66014;53.134;18.006;2023-10-09T07:27:55;101470.14;;;7.82;59.86
77086;BME280;66014;53.134;18.006;2023-10-09T07:30:24;101468.04;;;7.91;59.74
77086;BME280;66014;53.134;18.006;2023-10-09T07:33:42;101473.98;;;7.99;59.58
77086;BME280;66014;53.134;18.006;2023-10-09T07:36:23;101484.02;;;8.03;59.58
77086;BME280;66014;53.134;18.006;2023-10-09T07:39:01;101489.86;;;8.07;59.57
77086;BME280;66014;53.134;18.006;2023-10-09T07:41:31;101482.85;;;8.12;59.42
77086;BME280;66014;53.134;18.006;2023-10-09T07:43:59;101479.54;;;8.15;59.07
77086;BME280;66014;53.134;18.006;2023-10-09T07:46:46;101478.61;;;8.20;59.00
77086;BME280;66014;53.134;18.006;2023-10-09T07:49:41;101485.15;;;8.27;58.97
77086;BME280;66014;53.134;18.006;2023-10-09T07:52:08;101490.48;;;8.33;58.76
77086;BME280;66014;53.134;18.006;2023-10-09T07:54:33;101501.38;;;8.41;58.86
77086;BME280;66014;53.134;18.006;2023-10-09T07:57:01;101505.13;;;8.48;58.85
77086;BME280;66014;53.134;18.006;2023-10-09T07:59:42;101500.46;;;8.56;59.01
77086;BME280;66014;53.134;18.006;2023-10-09T08:02:21;101498.60;;;8.64;59.14
77086;BME280;66014;53.134;18.006;2023-10-09T08:05:04;101493.52;;;8.73;58.76
77086;BME280;66014;53.134;18.006;2023-10-09T08:07:47;101494.21;;;8.82;58.57
77086;BME280;66014;53.134;18.006;2023-10-09T08:10:55;101491.45;;;8.94;58.69
77086;BME280;66014;53.134;18.006;2023-10-09T08:13:39;101488.63;;;9.07;58.67
77086;BME280;66014;53.134;18.006;2023-10-09T08:20:34;101479.63;;;9.28;58.02
77086;BME280;66014;53.134;18.006;2023-10-09T08:23:19;101476.26;;;9.36;57.84
77086;BME280;66014;53.134;18.006;2023-10-09T08:26:02;101473.55;;;9.40;57.30
77086;BME280;66014;53.134;18.006;2023-10-09T08:28:55;101467.45;;;9.35;57.05
77086;BME280;66014;53.134;18.006;2023-10-09T08:31:40;101462.04;;;9.29;56.86
77086;BME280;66014;53.134;18.006;2023-10-09T08:34:15;101457.34;;;9.25;56.96
77086;BME280;66014;53.134;18.006;2023-10-09T08:36:51;101453.02;;;9.22;56.92
77086;BME280;66014;53.134;18.006;2023-10-09T08:39:22;101456.46;;;9.21;56.88
77086;BME280;66014;53.134;18.006;2023-10-09T08:41:51;101453.16;;;9.20;56.91
77086;BME280;66014;53.134;18.006;2023-10-09T08:44:19;101445.30;;;9.21;56.71
77086;BME280;66014;53.134;18.006;2023-10-09T08:46:49;101445.62;;;9.25;56.69
77086;BME280;66014;53.134;18.006;2023-10-09T08:49:17;101441.04;;;9.25;56.54
77086;BME280;66014;53.134;18.006;2023-10-09T08:51:44;101434.65;;;9.23;56.57
77086;BME280;66014;53.134;18.006;2023-10-09T08:54:11;101439.14;;;9.24;56.63
77086;BME280;66014;53.134;18.006;2023-10-09T08:56:41;101441.31;;;9.29;56.65
77086;BME280;66014;53.134;18.006;2023-10-09T08:59:18;101438.73;;;9.39;56.52
77086;BME280;66014;53.134;18.006;2023-10-09T09:01:48;101435.35;;;9.46;56.46
77086;BME280;66014;53.134;18.006;2023-10-09T09:04:38;101436.50;;;9.50;56.37
77086;BME280;66014;53.134;18.006;2023-10-09T09:07:06;101435.23;;;9.58;56.31
77086;BME280;66014;53.134;18.006;2023-10-09T09:09:33;101427.88;;;9.60;56.30
77086;BME280;66014;53.134;18.006;2023-10-09T09:12:00;101426.29;;;9.64;56.26
77086;BME280;66014;53.134;18.006;2023-10-09T09:14:36;101426.23;;;9.71;56.29
77086;BME280;66014;53.134;18.006;2023-10-09T09:17:03;101425.96;;;9.72;56.15
77086;BME280;66014;53.134;18.006;2023-10-09T09:19:32;101429.59;;;9.71;56.22
77086;BME280;66014;53.134;18.006;2023-10-09T09:21:58;101428.30;;;9.74;56.25
77086;BME280;66014;53.134;18.006;2023-10-09T09:24:41;101428.82;;;9.75;56.14
77086;BME280;66014;53.134;18.006;2023-10-09T09:27:43;101425.35;;;9.78;56.37
77086;BME280;66014;53.134;18.006;2023-10-09T09:30:27;101418.98;;;9.83;56.35
77086;BME280;66014;53.134;18.006;2023-10-09T09:36:06;101420.00;;;9.98;56.11
77086;BME280;66014;53.134;18.006;2023-10-09T09:38:34;101413.25;;;10.05;56.22
77086;BME280;66014;53.134;18.006;2023-10-09T09:41:17;101413.40;;;10.22;56.11
77086;BME280;66014;53.134;18.006;2023-10-09T09:43:56;101410.16;;;10.36;55.76
77086;BME280;66014;53.134;18.006;2023-10-09T09:46:33;101407.08;;;10.44;55.66
77086;BME280;66014;53.134;18.006;2023-10-09T09:49:01;101408.14;;;10.52;55.58
77086;BME280;66014;53.134;18.006;2023-10-09T09:51:32;101405.31;;;10.64;55.46
77086;BME280;66014;53.134;18.006;2023-10-09T09:54:01;101407.81;;;10.72;55.05
77086;BME280;66014;53.134;18.006;2023-10-09T09:56:28;101406.01;;;10.77;55.33
77086;BME280;66014;53.134;18.006;2023-10-09T09:58:57;101412.05;;;10.89;55.21
77086;BME280;66014;53.134;18.006;2023-10-09T10:01:32;101404.66;;;11.00;55.04
77086;BME280;66014;53.134;18.006;2023-10-09T10:04:09;101405.58;;;11.08;54.62
77086;BME280;66014;53.134;18.006;2023-10-09T10:06:43;101404.71;;;11.12;54.68
77086;BME280;66014;53.134;18.006;2023-10-09T10:09:34;101407.88;;;11.29;54.67
77086;BME280;66014;53.134;18.006;2023-10-09T10:12:13;101404.69;;;11.52;54.24
77086;BME280;66014;53.134;18.006;2023-10-09T10:14:57;101407.08;;;11.72;54.11
77086;BME280;66014;53.134;18.006;2023-10-09T10:20:25;101399.02;;;12.08;53.60
77086;BME280;66014;53.134;18.006;2023-10-09T10:23:18;101394.46;;;12.25;53.32
77086;BME280;66014;53.134;18.006;2023-10-09T10:25:45;101389.80;;;12.44;52.93
77086;BME280;66014;53.134;18.006;2023-10-09T10:28:27;101384.32;;;12.59;52.51
77086;BME280;66014;53.134;18.006;2023-10-09T10:31:10;101385.20;;;12.65;52.24
77086;BME280;66014;53.134;18.006;2023-10-09T10:41:06;101390.86;;;12.78;51.71
77086;BME280;66014;53.134;18.006;2023-10-09T10:48:35;101384.84;;;12.64;51.64
77086;BME280;66014;53.134;18.006;2023-10-09T10:51:06;101374.16;;;12.79;51.48
77086;BME280;66014;53.134;18.006;2023-10-09T10:53:52;101370.14;;;12.99;51.13
77086;BME280;66014;53.134;18.006;2023-10-09T10:56:39;101366.98;;;13.19;50.72
77086;BME280;66014;53.134;18.006;2023-10-09T10:59:12;101371.46;;;13.30;50.44
77086;BME280;66014;53.134;18.006;2023-10-09T11:05:33;101367.10;;;13.34;50.39
77086;BME280;66014;53.134;18.006;2023-10-09T11:08:44;101366.80;;;13.39;50.06
77086;BME280;66014;53.134;18.006;2023-10-09T11:14:52;101351.39;;;13.71;49.80
77086;BME280;66014;53.134;18.006;2023-10-09T11:18:01;101347.98;;;14.08;49.47
77086;BME280;66014;53.134;18.006;2023-10-09T11:20:35;101346.19;;;14.54;48.75
77086;BME280;66014;53.134;18.006;2023-10-09T11:23:38;101343.70;;;14.99;48.04
77086;BME280;66014;53.134;18.006;2023-10-09T11:26:19;101340.16;;;15.22;47.58
77086;BME280;66014;53.134;18.006;2023-10-09T11:29:18;101341.80;;;15.34;47.33
77086;BME280;66014;53.134;18.006;2023-10-09T11:32:17;101346.32;;;15.42;47.12
77086;BME280;66014;53.134;18.006;2023-10-09T11:34:46;101341.36;;;15.42;46.88
77086;BME280;66014;53.134;18.006;2023-10-09T11:37:22;101337.39;;;15.28;46.96
77086;BME280;66014;53.134;18.006;2023-10-09T11:39:59;101340.12;;;15.16;47.15
77086;BME280;66014;53.134;18.006;2023-10-09T11:42:28;101344.79;;;15.08;47.36
77086;BME280;66014;53.134;18.006;2023-10-09T11:45:25;101349.16;;;14.97;47.29
77086;BME280;66014;53.134;18.006;2023-10-09T11:48:16;101346.54;;;14.84;47.23
77086;BME280;66014;53.134;18.006;2023-10-09T11:50:52;101343.63;;;14.78;47.25
77086;BME280;66014;53.134;18.006;2023-10-09T11:53:41;101334.88;;;14.88;47.24
77086;BME280;66014;53.134;18.006;2023-10-09T11:56:09;101333.73;;;15.08;47.02
77086;BME280;66014;53.134;18.006;2023-10-09T11:58:40;101329.51;;;15.27;46.73
77086;BME280;66014;53.134;18.006;2023-10-09T12:01:13;101327.29;;;15.42;46.16
77086;BME280;66014;53.134;18.006;2023-10-09T12:03:43;101323.56;;;15.50;45.99
77086;BME280;66014;53.134;18.006;2023-10-09T12:06:20;101322.59;;;15.56;46.02
77086;BME280;66014;53.134;18.006;2023-10-09T12:08:50;101323.11;;;15.64;45.74
77086;BME280;66014;53.134;18.006;2023-10-09T12:11:19;101320.14;;;15.69;45.57
77086;BME280;66014;53.134;18.006;2023-10-09T12:13:48;101312.68;;;15.76;45.59
77086;BME280;66014;53.134;18.006;2023-10-09T12:16:14;101307.92;;;15.81;45.40
77086;BME280;66014;53.134;18.006;2023-10-09T12:18:42;101306.42;;;15.91;45.28
77086;BME280;66014;53.134;18.006;2023-10-09T12:21:11;101309.99;;;15.91;44.98
77086;BME280;66014;53.134;18.006;2023-10-09T12:23:44;101309.02;;;15.85;45.11
77086;BME280;66014;53.134;18.006;2023-10-09T12:26:14;101302.16;;;15.95;44.90
77086;BME280;66014;53.134;18.006;2023-10-09T12:28:42;101296.14;;;16.08;45.02
77086;BME280;66014;53.134;18.006;2023-10-09T12:31:16;101293.00;;;16.15;44.42
77086;BME280;66014;53.134;18.006;2023-10-09T12:33:46;101289.39;;;16.25;44.41
77086;BME280;66014;53.134;18.006;2023-10-09T12:36:13;101283.41;;;16.28;43.64
77086;BME280;66014;53.134;18.006;2023-10-09T12:38:49;101276.46;;;16.20;44.10
77086;BME280;66014;53.134;18.006;2023-10-09T12:41:24;101276.69;;;16.03;44.34
77086;BME280;66014;53.134;18.006;2023-10-09T12:43:59;101276.85;;;15.84;44.43
77086;BME280;66014;53.134;18.006;2023-10-09T12:46:25;101271.29;;;15.64;44.72
77086;BME280;66014;53.134;18.006;2023-10-09T12:48:53;101268.73;;;15.44;44.82
77086;BME280;66014;53.134;18.006;2023-10-09T12:51:20;101261.52;;;15.40;45.03
77086;BME280;66014;53.134;18.006;2023-10-09T12:53:52;101252.66;;;15.35;44.98
77086;BME280;66014;53.134;18.006;2023-10-09T12:56:26;101249.77;;;15.24;45.23
77086;BME280;66014;53.134;18.006;2023-10-09T12:59:03;101247.13;;;15.21;45.43
77086;BME280;66014;53.134;18.006;2023-10-09T13:01:33;101243.83;;;15.27;45.37
77086;BME280;66014;53.134;18.006;2023-10-09T13:04:13;101240.16;;;15.38;45.44
77086;BME280;66014;53.134;18.006;2023-10-09T13:06:45;101238.99;;;15.51;45.30
77086;BME280;66014;53.134;18.006;2023-10-09T13:09:15;101232.27;;;15.58;45.29
77086;BME280;66014;53.134;18.006;2023-10-09T13:11:50;101236.77;;;15.59;44.83
77086;BME280;66014;53.134;18.006;2023-10-09T13:14:16;101243.05;;;15.59;45.20
77086;BME280;66014;53.134;18.006;2023-10-09T13:16:43;101239.94;;;15.57;44.27
77086;BME280;66014;53.134;18.006;2023-10-09T13:19:12;101237.48;;;15.44;44.07
77086;BME280;66014;53.134;18.006;2023-10-09T13:21:38;101229.79;;;15.29;44.54
77086;BME280;66014;53.134;18.006;2023-10-09T13:24:09;101233.22;;;15.18;44.85
77086;BME280;66014;53.134;18.006;2023-10-09T13:26:50;101238.16;;;15.29;44.80
77086;BME280;66014;53.134;18.006;2023-10-09T13:29:30;101230.84;;;15.49;44.73
77086;BME280;66014;53.134;18.006;2023-10-09T13:32:00;101229.84;;;15.63;44.61
77086;BME280;66014;53.134;18.006;2023-10-09T13:34:28;101230.23;;;15.78;44.59
77086;BME280;66014;53.134;18.006;2023-10-09T13:36:54;101228.26;;;15.93;44.52
77086;BME280;66014;53.134;18.006;2023-10-09T13:39:21;101233.43;;;15.96;44.37
77086;BME280;66014;53.134;18.006;2023-10-09T13:41:57;101230.05;;;16.03;44.64
77086;BME280;66014;53.134;18.006;2023-10-09T13:46:56;101236.86;;;16.16;43.41
77086;BME280;66014;53.134;18.006;2023-10-09T13:49:23;101233.64;;;16.03;43.71
77086;BME280;66014;53.134;18.006;2023-10-09T13:51:56;101229.15;;;15.91;43.93
77086;BME280;66014;53.134;18.006;2023-10-09T13:54:23;101231.58;;;15.76;44.05
77086;BME280;66014;53.134;18.006;2023-10-09T13:57:00;101232.92;;;15.64;44.38
77086;BME280;66014;53.134;18.006;2023-10-09T13:59:30;101239.20;;;15.64;44.62
77086;BME280;66014;53.134;18.006;2023-10-09T14:01:56;101233.88;;;15.57;44.69
77086;BME280;66014;53.134;18.006;2023-10-09T14:04:25;101236.28;;;15.48;44.59
77086;BME280;66014;53.134;18.006;2023-10-09T14:06:54;101233.23;;;15.30;44.72
77086;BME280;66014;53.134;18.006;2023-10-09T14:09:25;101241.61;;;15.11;45.00
77086;BME280;66014;53.134;18.006;2023-10-09T14:11:55;101241.08;;;14.98;45.31
77086;BME280;66014;53.134;18.006;2023-10-09T14:14:39;101239.84;;;15.02;45.44
77086;BME280;66014;53.134;18.006;2023-10-09T14:17:19;101240.17;;;15.15;45.29
77086;BME280;66014;53.134;18.006;2023-10-09T14:19:50;101245.67;;;15.29;45.20
77086;BME280;66014;53.134;18.006;2023-10-09T14:22:24;101247.92;;;15.38;45.10